Accueil
METAR-TAF:

METAR-TAF

Aéroports :

Alpnach, Suisse

latitude: 46-56-19N, longitude: 8-17-03E, altitude: 440 m

Observation

Le bulletin a été fait il y a 51 minutes, à 18:50 UTC
Vent 2 kt de sud
Température 1°C
Humidité 93%
Pression 1018 hPa
Visibilité: 3700 m
Quelques nuages à une hauteur de 3600 ft
Nuages épars à une hauteur de 4200 ft
Ciel couvert à une hauteur de 5200 ft
brume

METAR: LSMA 121850Z AUTO 17002KT 3700NDV BR FEW036 SCT042 OVC052 01/00 Q1018 RMK

Heure: 20:41 (19:41 UTC)


TAF: absent

Observations et prévisions météorologiques de plus de 4000 aéroports (messages METAR et TAF).

Les stations disponibles sont représentées par des disques jaunes et rouges sur la carte.

Passer la souris dessus pour voir le nom de la station.

Cliquer dessus pour voir les observations et prévisions météorologiques.

Pour changer de carte: cliquez sur les boutons verts avec une croix noire pour zoomer, sur le bouton vert avec un tiret pour effectuer un zoom arrière, ou sur les flèches vertes pour les cartes adjacentes.


METAR-TAF: